Station History

Weather Underground - logo

Station Historical Data
Daily Summary for December 4, 2017 Units:  Both    English   Metric
« Previous Day
Next Day »
Daily Weekly Monthly Yearly Custom
  High: Low: Average:
Temperature: 56.7 °F /  13.7 °C 36.9 °F /  2.7 °C 45.3 °F /  7.4 °C
Dew Point: 42.6 °F /  5.9 °C 34.5 °F /  1.4 °C 38.7 °F /  3.7 °C
Humidity: 91 % 56 % 79 %
Wind Speed: 5.8 mph /  9.3 km/h - 0.7 mph /  1.1 km/h
Wind Gust: 5.8 mph /  9.3 km/h - -
Wind:- - WSW
Pressure: 30.22 in /  1023.2 hPa 30.08 in /  1018.5 hPa -
Precipitation: 0.00 in /  0 mm    
Historical Graphs
 
 
Tabular Data for December 4, 2017
Time Temperature Dew Point Pressure Wind Wind Speed Wind Gust Humidity Rainfall Rate (Hourly)
00:03 41.0 °F /  5 °C 37.7 °F /  3.2 °C 30.15 in /  1020.9 hPa Calm     88 % 0.00 in /  0 mm
00:08 40.8 °F /  4.9 °C 37.2 °F /  2.9 °C 30.15 in /  1020.9 hPa Calm     87 % 0.00 in /  0 mm
00:13 40.7 °F /  4.8 °C 37.4 °F /  3 °C 30.15 in /  1020.9 hPa Calm     88 % 0.00 in /  0 mm
00:18 40.6 °F /  4.8 °C 37.3 °F /  2.9 °C 30.15 in /  1020.9 hPa Calm     88 % 0.00 in /  0 mm
00:23 40.5 °F /  4.7 °C 37.2 °F /  2.9 °C 30.15 in /  1020.9 hPa Calm     88 % 0.00 in /  0 mm
00:28 40.3 °F /  4.6 °C 37.0 °F /  2.8 °C 30.15 in /  1020.9 hPa Calm     88 % 0.00 in /  0 mm
00:33 40.0 °F /  4.4 °C 36.7 °F /  2.6 °C 30.15 in /  1020.9 hPa Calm     88 % 0.00 in /  0 mm
00:38 40.0 °F /  4.4 °C 37.0 °F /  2.8 °C 30.15 in /  1020.9 hPa Calm     89 % 0.00 in /  0 mm
00:43 40.1 °F /  4.5 °C 37.4 °F /  3 °C 30.15 in /  1020.9 hPa Calm     90 % 0.00 in /  0 mm
00:48 40.1 °F /  4.5 °C 37.4 °F /  3 °C 30.15 in /  1020.9 hPa Calm     90 % 0.00 in /  0 mm
00:53 40.1 °F /  4.5 °C 37.4 °F /  3 °C 30.15 in /  1020.9 hPa Calm     90 % 0.00 in /  0 mm
00:58 40.1 °F /  4.5 °C 37.4 °F /  3 °C 30.15 in /  1020.9 hPa Calm     90 % 0.00 in /  0 mm
01:03 40.0 °F /  4.4 °C 37.3 °F /  2.9 °C 30.15 in /  1020.9 hPa Calm     90 % 0.00 in /  0 mm
01:08 39.9 °F /  4.4 °C 37.2 °F /  2.9 °C 30.15 in /  1020.9 hPa Calm     90 % 0.00 in /  0 mm
01:13 39.7 °F /  4.3 °C 37.0 °F /  2.8 °C 30.16 in /  1021.2 hPa Calm     90 % 0.00 in /  0 mm
01:18 39.6 °F /  4.2 °C 36.9 °F /  2.7 °C 30.16 in /  1021.2 hPa Calm     90 % 0.00 in /  0 mm
01:23 39.6 °F /  4.2 °C 36.9 °F /  2.7 °C 30.16 in /  1021.2 hPa Calm     90 % 0.00 in /  0 mm
01:28 39.5 °F /  4.2 °C 36.8 °F /  2.7 °C 30.16 in /  1021.2 hPa Calm     90 % 0.00 in /  0 mm
01:33 39.6 °F /  4.2 °C 36.9 °F /  2.7 °C 30.16 in /  1021.2 hPa Calm     90 % 0.00 in /  0 mm
01:38 39.7 °F /  4.3 °C 37.0 °F /  2.8 °C 30.16 in /  1021.2 hPa Calm     90 % 0.00 in /  0 mm
01:43 39.7 °F /  4.3 °C 37.0 °F /  2.8 °C 30.16 in /  1021.2 hPa Calm     90 % 0.00 in /  0 mm
01:48 39.7 °F /  4.3 °C 37.0 °F /  2.8 °C 30.16 in /  1021.2 hPa Calm     90 % 0.00 in /  0 mm
01:53 39.6 °F /  4.2 °C 36.9 °F /  2.7 °C 30.17 in /  1021.6 hPa Calm     90 % 0.00 in /  0 mm
01:58 39.5 °F /  4.2 °C 36.8 °F /  2.7 °C 30.17 in /  1021.6 hPa Calm     90 % 0.00 in /  0 mm
02:03 39.5 °F /  4.2 °C 36.8 °F /  2.7 °C 30.17 in /  1021.6 hPa Calm     90 % 0.00 in /  0 mm
02:08 39.4 °F /  4.1 °C 36.7 °F /  2.6 °C 30.17 in /  1021.6 hPa Calm     90 % 0.00 in /  0 mm
02:13 39.5 °F /  4.2 °C 36.8 °F /  2.7 °C 30.17 in /  1021.6 hPa Calm     90 % 0.00 in /  0 mm
02:19 39.7 °F /  4.3 °C 37.3 °F /  2.9 °C 30.17 in /  1021.6 hPa Calm     91 % 0.00 in /  0 mm
02:24 39.7 °F /  4.3 °C 37.0 °F /  2.8 °C 30.17 in /  1021.6 hPa SE 1.2 mph /  1.9 km/h   90 % 0.00 in /  0 mm
02:29 39.8 °F /  4.3 °C 37.1 °F /  2.8 °C 30.17 in /  1021.6 hPa Calm     90 % 0.00 in /  0 mm
02:34 39.9 °F /  4.4 °C 37.2 °F /  2.9 °C 30.17 in /  1021.6 hPa Calm     90 % 0.00 in /  0 mm
02:39 40.0 °F /  4.4 °C 37.6 °F /  3.1 °C 30.17 in /  1021.6 hPa Calm     91 % 0.00 in /  0 mm
02:44 40.0 °F /  4.4 °C 37.6 °F /  3.1 °C 30.16 in /  1021.2 hPa Calm     91 % 0.00 in /  0 mm
02:49 40.0 °F /  4.4 °C 37.6 °F /  3.1 °C 30.16 in /  1021.2 hPa SE 1.0 mph /  1.6 km/h   91 % 0.00 in /  0 mm
02:54 40.1 °F /  4.5 °C 37.4 °F /  3 °C 30.16 in /  1021.2 hPa Calm     90 % 0.00 in /  0 mm
02:59 40.3 °F /  4.6 °C 37.9 °F /  3.3 °C 30.16 in /  1021.2 hPa Calm     91 % 0.00 in /  0 mm
03:04 40.5 °F /  4.7 °C 38.1 °F /  3.4 °C 30.16 in /  1021.2 hPa Calm     91 % 0.00 in /  0 mm
03:09 40.6 °F /  4.8 °C 37.9 °F /  3.3 °C 30.16 in /  1021.2 hPa SE 1.2 mph /  1.9 km/h   90 % 0.00 in /  0 mm
03:14 40.8 °F /  4.9 °C 38.1 °F /  3.4 °C 30.16 in /  1021.2 hPa Calm     90 % 0.00 in /  0 mm
03:19 40.9 °F /  4.9 °C 38.2 °F /  3.4 °C 30.16 in /  1021.2 hPa Calm     90 % 0.00 in /  0 mm
03:24 40.9 °F /  4.9 °C 38.2 °F /  3.4 °C 30.16 in /  1021.2 hPa Calm     90 % 0.00 in /  0 mm
03:29 41.0 °F /  5 °C 38.3 °F /  3.5 °C 30.16 in /  1021.2 hPa Calm     90 % 0.00 in /  0 mm
03:34 41.0 °F /  5 °C 38.3 °F /  3.5 °C 30.15 in /  1020.9 hPa Calm     90 % 0.00 in /  0 mm
03:39 40.9 °F /  4.9 °C 38.2 °F /  3.4 °C 30.15 in /  1020.9 hPa Calm     90 % 0.00 in /  0 mm
03:41 40.9 °F /  4.9 °C 38.2 °F /  3.4 °C 30.15 in /  1020.9 hPa SE 1.2 mph /  1.9 km/h 1.2 mph /  1.9 km/h 90 % 0.00 in /  0 mm
03:46 40.9 °F /  4.9 °C 37.9 °F /  3.3 °C 30.15 in /  1020.9 hPa Calm     89 % 0.00 in /  0 mm
03:51 41.0 °F /  5 °C 38.0 °F /  3.3 °C 30.15 in /  1020.9 hPa Calm     89 % 0.00 in /  0 mm
03:56 41.1 °F /  5.1 °C 38.1 °F /  3.4 °C 30.15 in /  1020.9 hPa Calm     89 % 0.00 in /  0 mm
04:01 41.2 °F /  5.1 °C 38.2 °F /  3.4 °C 30.15 in /  1020.9 hPa Calm     89 % 0.00 in /  0 mm
04:06 41.0 °F /  5 °C 38.0 °F /  3.3 °C 30.15 in /  1020.9 hPa Calm     89 % 0.00 in /  0 mm
04:08 41.1 °F /  5.1 °C 38.1 °F /  3.4 °C 30.15 in /  1020.9 hPa Calm     89 % 0.00 in /  0 mm
04:13 41.0 °F /  5 °C 38.0 °F /  3.3 °C 30.14 in /  1020.5 hPa Calm     89 % 0.00 in /  0 mm
04:18 40.8 °F /  4.9 °C 37.8 °F /  3.2 °C 30.14 in /  1020.5 hPa Calm     89 % 0.00 in /  0 mm
04:23 40.4 °F /  4.7 °C 37.4 °F /  3 °C 30.14 in /  1020.5 hPa Calm     89 % 0.00 in /  0 mm
04:24 40.2 °F /  4.6 °C 37.2 °F /  2.9 °C 30.14 in /  1020.5 hPa Calm     89 % 0.00 in /  0 mm
04:29 39.8 °F /  4.3 °C 37.1 °F /  2.8 °C 30.14 in /  1020.5 hPa Calm     90 % 0.00 in /  0 mm
04:34 39.6 °F /  4.2 °C 36.9 °F /  2.7 °C 30.14 in /  1020.5 hPa Calm     90 % 0.00 in /  0 mm
04:39 39.3 °F /  4.1 °C 36.9 °F /  2.7 °C 30.14 in /  1020.5 hPa Calm     91 % 0.00 in /  0 mm
04:44 39.1 °F /  3.9 °C 36.7 °F /  2.6 °C 30.14 in /  1020.5 hPa Calm     91 % 0.00 in /  0 mm
04:49 39.0 °F /  3.9 °C 36.6 °F /  2.6 °C 30.14 in /  1020.5 hPa SE 1.0 mph /  1.6 km/h   91 % 0.00 in /  0 mm
04:54 38.9 °F /  3.8 °C 36.5 °F /  2.5 °C 30.14 in /  1020.5 hPa Calm     91 % 0.00 in /  0 mm
04:59 38.7 °F /  3.7 °C 36.3 °F /  2.4 °C 30.14 in /  1020.5 hPa Calm     91 % 0.00 in /  0 mm
05:04 38.5 °F /  3.6 °C 36.1 °F /  2.3 °C 30.14 in /  1020.5 hPa Calm     91 % 0.00 in /  0 mm
05:09 38.5 °F /  3.6 °C 36.1 °F /  2.3 °C 30.14 in /  1020.5 hPa Calm     91 % 0.00 in /  0 mm
05:10 38.5 °F /  3.6 °C 36.1 °F /  2.3 °C 30.14 in /  1020.5 hPa Calm     91 % 0.00 in /  0 mm
05:15 38.5 °F /  3.6 °C 36.1 °F /  2.3 °C 30.15 in /  1020.9 hPa Calm     91 % 0.00 in /  0 mm
05:20 38.5 °F /  3.6 °C 36.1 °F /  2.3 °C 30.15 in /  1020.9 hPa Calm     91 % 0.00 in /  0 mm
05:26 38.6 °F /  3.7 °C 36.2 °F /  2.3 °C 30.15 in /  1020.9 hPa Calm   0.2 mph /  0.3 km/h 91 % 0.00 in /  0 mm
05:31 38.6 °F /  3.7 °C 36.2 °F /  2.3 °C 30.15 in /  1020.9 hPa Calm     91 % 0.00 in /  0 mm
05:36 38.5 °F /  3.6 °C 36.1 °F /  2.3 °C 30.15 in /  1020.9 hPa ESE 1.2 mph /  1.9 km/h   91 % 0.00 in /  0 mm
05:41 38.5 °F /  3.6 °C 36.1 °F /  2.3 °C 30.15 in /  1020.9 hPa Calm     91 % 0.00 in /  0 mm
05:46 38.6 °F /  3.7 °C 36.2 °F /  2.3 °C 30.15 in /  1020.9 hPa Calm     91 % 0.00 in /  0 mm
05:51 38.7 °F /  3.7 °C 36.3 °F /  2.4 °C 30.15 in /  1020.9 hPa Calm     91 % 0.00 in /  0 mm
05:56 38.7 °F /  3.7 °C 36.3 °F /  2.4 °C 30.16 in /  1021.2 hPa Calm     91 % 0.00 in /  0 mm
06:01 38.9 °F /  3.8 °C 36.5 °F /  2.5 °C 30.16 in /  1021.2 hPa Calm     91 % 0.00 in /  0 mm
06:06 39.0 °F /  3.9 °C 36.6 °F /  2.6 °C 30.16 in /  1021.2 hPa Calm     91 % 0.00 in /  0 mm
06:11 39.1 °F /  3.9 °C 36.7 °F /  2.6 °C 30.16 in /  1021.2 hPa Calm     91 % 0.00 in /  0 mm
06:16 39.1 °F /  3.9 °C 36.7 °F /  2.6 °C 30.16 in /  1021.2 hPa Calm     91 % 0.00 in /  0 mm
06:22 39.2 °F /  4 °C 36.8 °F /  2.7 °C 30.16 in /  1021.2 hPa Calm     91 % 0.00 in /  0 mm
06:27 39.1 °F /  3.9 °C 36.4 °F /  2.4 °C 30.16 in /  1021.2 hPa Calm     90 % 0.00 in /  0 mm
06:32 39.1 °F /  3.9 °C 36.4 °F /  2.4 °C 30.16 in /  1021.2 hPa Calm     90 % 0.00 in /  0 mm
06:37 39.1 °F /  3.9 °C 36.4 °F /  2.4 °C 30.16 in /  1021.2 hPa Calm     90 % 0.00 in /  0 mm
06:42 39.1 °F /  3.9 °C 36.4 °F /  2.4 °C 30.16 in /  1021.2 hPa Calm     90 % 0.00 in /  0 mm
06:47 39.0 °F /  3.9 °C 36.3 °F /  2.4 °C 30.16 in /  1021.2 hPa Calm     90 % 0.00 in /  0 mm
06:52 39.0 °F /  3.9 °C 36.3 °F /  2.4 °C 30.17 in /  1021.6 hPa Calm     90 % 0.00 in /  0 mm
06:57 38.9 °F /  3.8 °C 36.2 °F /  2.3 °C 30.17 in /  1021.6 hPa Calm     90 % 0.00 in /  0 mm
07:02 38.9 °F /  3.8 °C 36.2 °F /  2.3 °C 30.17 in /  1021.6 hPa Calm     90 % 0.00 in /  0 mm
07:07 38.9 °F /  3.8 °C 36.2 °F /  2.3 °C 30.17 in /  1021.6 hPa Calm     90 % 0.00 in /  0 mm
07:12 38.9 °F /  3.8 °C 36.2 °F /  2.3 °C 30.17 in /  1021.6 hPa Calm     90 % 0.00 in /  0 mm
07:17 39.1 °F /  3.9 °C 36.4 °F /  2.4 °C 30.18 in /  1021.9 hPa Calm     90 % 0.00 in /  0 mm
07:22 39.2 °F /  4 °C 36.2 °F /  2.3 °C 30.18 in /  1021.9 hPa Calm     89 % 0.00 in /  0 mm
07:27 39.4 °F /  4.1 °C 36.4 °F /  2.4 °C 30.18 in /  1021.9 hPa Calm     89 % 0.00 in /  0 mm
07:32 39.5 °F /  4.2 °C 36.5 °F /  2.5 °C 30.18 in /  1021.9 hPa Calm     89 % 0.00 in /  0 mm
07:37 39.7 °F /  4.3 °C 36.4 °F /  2.4 °C 30.18 in /  1021.9 hPa Calm     88 % 0.00 in /  0 mm
07:42 40.1 °F /  4.5 °C 36.8 °F /  2.7 °C 30.18 in /  1021.9 hPa Calm     88 % 0.00 in /  0 mm
07:47 40.6 °F /  4.8 °C 37.0 °F /  2.8 °C 30.18 in /  1021.9 hPa Calm     87 % 0.00 in /  0 mm
07:52 41.4 °F /  5.2 °C 37.8 °F /  3.2 °C 30.18 in /  1021.9 hPa SE 1.2 mph /  1.9 km/h 1.2 mph /  1.9 km/h 87 % 0.00 in /  0 mm
07:57 41.8 °F /  5.4 °C 37.6 °F /  3.1 °C 30.19 in /  1022.2 hPa Calm     85 % 0.00 in /  0 mm
08:02 41.9 °F /  5.5 °C 38.0 °F /  3.3 °C 30.18 in /  1021.9 hPa Calm     86 % 0.00 in /  0 mm
08:07 42.1 °F /  5.6 °C 38.2 °F /  3.4 °C 30.19 in /  1022.2 hPa SSE 2.3 mph /  3.7 km/h   86 % 0.00 in /  0 mm
08:12 42.4 °F /  5.8 °C 38.2 °F /  3.4 °C 30.18 in /  1021.9 hPa SE 1.2 mph /  1.9 km/h 1.2 mph /  1.9 km/h 85 % 0.00 in /  0 mm
08:17 42.7 °F /  5.9 °C 38.2 °F /  3.4 °C 30.18 in /  1021.9 hPa SE 1.2 mph /  1.9 km/h   84 % 0.00 in /  0 mm
08:22 42.9 °F /  6.1 °C 38.4 °F /  3.6 °C 30.18 in /  1021.9 hPa ESE 1.2 mph /  1.9 km/h   84 % 0.00 in /  0 mm
08:27 43.0 °F /  6.1 °C 38.5 °F /  3.6 °C 30.18 in /  1021.9 hPa SE 2.3 mph /  3.7 km/h 2.3 mph /  3.7 km/h 84 % 0.00 in /  0 mm
08:32 43.0 °F /  6.1 °C 38.5 °F /  3.6 °C 30.18 in /  1021.9 hPa SW 1.2 mph /  1.9 km/h   84 % 0.00 in /  0 mm
08:37 43.2 °F /  6.2 °C 38.4 °F /  3.6 °C 30.18 in /  1021.9 hPa SE 1.2 mph /  1.9 km/h 1.2 mph /  1.9 km/h 83 % 0.00 in /  0 mm
08:42 43.3 °F /  6.3 °C 38.5 °F /  3.6 °C 30.18 in /  1021.9 hPa Calm   0.1 mph /  0.2 km/h 83 % 0.00 in /  0 mm
08:47 43.8 °F /  6.6 °C 39.0 °F /  3.9 °C 30.18 in /  1021.9 hPa Calm     83 % 0.00 in /  0 mm
08:52 44.5 °F /  6.9 °C 39.3 °F /  4.1 °C 30.18 in /  1021.9 hPa Calm     82 % 0.00 in /  0 mm
08:57 45.1 °F /  7.3 °C 39.3 °F /  4.1 °C 30.18 in /  1021.9 hPa Calm     80 % 0.00 in /  0 mm
09:02 45.6 °F /  7.6 °C 39.5 °F /  4.2 °C 30.18 in /  1021.9 hPa SE 2.3 mph /  3.7 km/h 2.3 mph /  3.7 km/h 79 % 0.00 in /  0 mm
09:07 46.3 °F /  7.9 °C 39.8 °F /  4.3 °C 30.18 in /  1021.9 hPa SE 2.3 mph /  3.7 km/h 2.3 mph /  3.7 km/h 78 % 0.00 in /  0 mm
09:12 47.1 °F /  8.4 °C 40.3 °F /  4.6 °C 30.18 in /  1021.9 hPa ESE 1.2 mph /  1.9 km/h 1.2 mph /  1.9 km/h 77 % 0.00 in /  0 mm
09:17 47.7 °F /  8.7 °C 40.2 °F /  4.6 °C 30.18 in /  1021.9 hPa South 2.3 mph /  3.7 km/h 2.3 mph /  3.7 km/h 75 % 0.00 in /  0 mm
09:22 48.4 °F /  9.1 °C 40.5 °F /  4.7 °C 30.18 in /  1021.9 hPa SSE 2.3 mph /  3.7 km/h   74 % 0.00 in /  0 mm
09:27 48.8 °F /  9.3 °C 39.8 °F /  4.3 °C 30.18 in /  1021.9 hPa NW 1.2 mph /  1.9 km/h 1.2 mph /  1.9 km/h 71 % 0.00 in /  0 mm
09:32 49.3 °F /  9.6 °C 40.7 °F /  4.8 °C 30.18 in /  1021.9 hPa SSE 3.5 mph /  5.6 km/h 3.5 mph /  5.6 km/h 72 % 0.00 in /  0 mm
09:37 49.6 °F /  9.8 °C 40.2 °F /  4.6 °C 30.18 in /  1021.9 hPa South 3.5 mph /  5.6 km/h 3.5 mph /  5.6 km/h 70 % 0.00 in /  0 mm
09:42 49.2 °F /  9.6 °C 40.2 °F /  4.6 °C 30.18 in /  1021.9 hPa Calm     71 % 0.00 in /  0 mm
09:47 49.0 °F /  9.4 °C 40.4 °F /  4.7 °C 30.18 in /  1021.9 hPa Calm   0.2 mph /  0.3 km/h 72 % 0.00 in /  0 mm
09:52 49.5 °F /  9.7 °C 40.8 °F /  4.9 °C 30.18 in /  1021.9 hPa SW 1.2 mph /  1.9 km/h 1.2 mph /  1.9 km/h 72 % 0.00 in /  0 mm
09:57 49.7 °F /  9.8 °C 41.0 °F /  5 °C 30.18 in /  1021.9 hPa SSW 1.2 mph /  1.9 km/h   72 % 0.00 in /  0 mm
10:02 50.1 °F /  10.1 °C 40.7 °F /  4.8 °C 30.18 in /  1021.9 hPa ESE 4.6 mph /  7.4 km/h 4.6 mph /  7.4 km/h 70 % 0.00 in /  0 mm
10:08 50.5 °F /  10.3 °C 41.1 °F /  5.1 °C 30.17 in /  1021.6 hPa ENE 3.5 mph /  5.6 km/h 3.5 mph /  5.6 km/h 70 % 0.00 in /  0 mm
10:13 51.1 °F /  10.6 °C 41.7 °F /  5.4 °C 30.17 in /  1021.6 hPa South 1.2 mph /  1.9 km/h 1.2 mph /  1.9 km/h 70 % 0.00 in /  0 mm
10:18 51.8 °F /  11 °C 41.2 °F /  5.1 °C 30.17 in /  1021.6 hPa South 5.8 mph /  9.3 km/h 5.8 mph /  9.3 km/h 67 % 0.00 in /  0 mm
10:23 52.0 °F /  11.1 °C 41.8 °F /  5.4 °C 30.17 in /  1021.6 hPa SSW 2.3 mph /  3.7 km/h 2.3 mph /  3.7 km/h 68 % 0.00 in /  0 mm
10:28 52.4 °F /  11.3 °C 41.8 °F /  5.4 °C 30.17 in /  1021.6 hPa SSE 3.5 mph /  5.6 km/h 3.5 mph /  5.6 km/h 67 % 0.00 in /  0 mm
10:33 52.5 °F /  11.4 °C 41.9 °F /  5.5 °C 30.16 in /  1021.2 hPa ESE 4.0 mph /  6.4 km/h 4.0 mph /  6.4 km/h 67 % 0.00 in /  0 mm
10:38 52.8 °F /  11.6 °C 41.7 °F /  5.4 °C 30.16 in /  1021.2 hPa SE 2.3 mph /  3.7 km/h 2.3 mph /  3.7 km/h 66 % 0.00 in /  0 mm
10:43 53.3 °F /  11.8 °C 42.2 °F /  5.7 °C 30.16 in /  1021.2 hPa SSE 4.6 mph /  7.4 km/h 4.6 mph /  7.4 km/h 66 % 0.00 in /  0 mm
10:48 53.8 °F /  12.1 °C 42.3 °F /  5.7 °C 30.16 in /  1021.2 hPa NNW 2.3 mph /  3.7 km/h 2.3 mph /  3.7 km/h 65 % 0.00 in /  0 mm
10:53 53.4 °F /  11.9 °C 41.5 °F /  5.3 °C 30.16 in /  1021.2 hPa WSW 2.3 mph /  3.7 km/h 2.3 mph /  3.7 km/h 64 % 0.00 in /  0 mm
10:58 53.2 °F /  11.8 °C 42.1 °F /  5.6 °C 30.16 in /  1021.2 hPa SSW 2.3 mph /  3.7 km/h 2.3 mph /  3.7 km/h 66 % 0.00 in /  0 mm
11:03 53.6 °F /  12 °C 42.5 °F /  5.8 °C 30.15 in /  1020.9 hPa ESE 3.5 mph /  5.6 km/h 3.5 mph /  5.6 km/h 66 % 0.00 in /  0 mm
11:08 53.6 °F /  12 °C 41.7 °F /  5.4 °C 30.15 in /  1020.9 hPa NW 1.2 mph /  1.9 km/h 1.2 mph /  1.9 km/h 64 % 0.00 in /  0 mm
11:13 53.4 °F /  11.9 °C 41.5 °F /  5.3 °C 30.15 in /  1020.9 hPa NW 2.3 mph /  3.7 km/h 2.3 mph /  3.7 km/h 64 % 0.00 in /  0 mm
11:18 53.4 °F /  11.9 °C 41.9 °F /  5.5 °C 30.14 in /  1020.5 hPa SSW 1.2 mph /  1.9 km/h 1.2 mph /  1.9 km/h 65 % 0.00 in /  0 mm
11:23 53.6 °F /  12 °C 41.7 °F /  5.4 °C 30.14 in /  1020.5 hPa NW 3.5 mph /  5.6 km/h 3.5 mph /  5.6 km/h 64 % 0.00 in /  0 mm
11:28 53.3 °F /  11.8 °C 41.8 °F /  5.4 °C 30.14 in /  1020.5 hPa WSW 2.3 mph /  3.7 km/h 2.3 mph /  3.7 km/h 65 % 0.00 in /  0 mm
11:33 53.0 °F /  11.7 °C 41.5 °F /  5.3 °C 30.13 in /  1020.2 hPa NW 1.2 mph /  1.9 km/h 1.2 mph /  1.9 km/h 65 % 0.00 in /  0 mm
11:38 53.7 °F /  12.1 °C 42.2 °F /  5.7 °C 30.13 in /  1020.2 hPa WNW 2.3 mph /  3.7 km/h 2.3 mph /  3.7 km/h 65 % 0.00 in /  0 mm
11:43 53.9 °F /  12.2 °C 41.6 °F /  5.3 °C 30.13 in /  1020.2 hPa North 2.3 mph /  3.7 km/h 2.3 mph /  3.7 km/h 63 % 0.00 in /  0 mm
11:48 53.5 °F /  11.9 °C 41.2 °F /  5.1 °C 30.13 in /  1020.2 hPa NNW 1.2 mph /  1.9 km/h 1.2 mph /  1.9 km/h 63 % 0.00 in /  0 mm
11:53 53.7 °F /  12.1 °C 42.6 °F /  5.9 °C 30.13 in /  1020.2 hPa Calm     66 % 0.00 in /  0 mm
11:58 54.1 °F /  12.3 °C 42.2 °F /  5.7 °C 30.12 in /  1019.9 hPa NW 3.5 mph /  5.6 km/h 3.5 mph /  5.6 km/h 64 % 0.00 in /  0 mm
12:03 53.9 °F /  12.2 °C 41.6 °F /  5.3 °C 30.12 in /  1019.9 hPa NW 3.5 mph /  5.6 km/h 3.5 mph /  5.6 km/h 63 % 0.00 in /  0 mm
12:08 53.9 °F /  12.2 °C 41.6 °F /  5.3 °C 30.12 in /  1019.9 hPa WNW 2.3 mph /  3.7 km/h 2.3 mph /  3.7 km/h 63 % 0.00 in /  0 mm
12:13 53.9 °F /  12.2 °C 41.6 °F /  5.3 °C 30.12 in /  1019.9 hPa NW 2.3 mph /  3.7 km/h 2.3 mph /  3.7 km/h 63 % 0.00 in /  0 mm
12:18 53.9 °F /  12.2 °C 41.6 °F /  5.3 °C 30.12 in /  1019.9 hPa WNW 1.2 mph /  1.9 km/h 1.2 mph /  1.9 km/h 63 % 0.00 in /  0 mm
12:23 54.1 °F /  12.3 °C 41.4 °F /  5.2 °C 30.12 in /  1019.9 hPa WNW 2.3 mph /  3.7 km/h 2.3 mph /  3.7 km/h 62 % 0.00 in /  0 mm
12:28 54.4 °F /  12.4 °C 41.2 °F /  5.1 °C 30.12 in /  1019.9 hPa NNW 1.2 mph /  1.9 km/h 1.2 mph /  1.9 km/h 61 % 0.00 in /  0 mm
12:33 54.5 °F /  12.5 °C 41.3 °F /  5.2 °C 30.11 in /  1019.5 hPa NW 3.5 mph /  5.6 km/h 3.5 mph /  5.6 km/h 61 % 0.00 in /  0 mm
12:38 54.5 °F /  12.5 °C 41.3 °F /  5.2 °C 30.11 in /  1019.5 hPa NW 2.3 mph /  3.7 km/h 2.3 mph /  3.7 km/h 61 % 0.00 in /  0 mm
12:43 54.7 °F /  12.6 °C 41.5 °F /  5.3 °C 30.11 in /  1019.5 hPa NW 2.3 mph /  3.7 km/h 2.3 mph /  3.7 km/h 61 % 0.00 in /  0 mm
12:48 55.0 °F /  12.8 °C 41.4 °F /  5.2 °C 30.11 in /  1019.5 hPa NW 2.3 mph /  3.7 km/h 2.3 mph /  3.7 km/h 60 % 0.00 in /  0 mm
12:53 55.2 °F /  12.9 °C 41.1 °F /  5.1 °C 30.11 in /  1019.5 hPa WNW 1.2 mph /  1.9 km/h 1.2 mph /  1.9 km/h 59 % 0.00 in /  0 mm
12:58 55.0 °F /  12.8 °C 40.9 °F /  4.9 °C 30.11 in /  1019.5 hPa West 1.2 mph /  1.9 km/h   59 % 0.00 in /  0 mm
13:03 55.4 °F /  13 °C 40.9 °F /  4.9 °C 30.11 in /  1019.5 hPa NW 2.3 mph /  3.7 km/h 2.3 mph /  3.7 km/h 58 % 0.00 in /  0 mm
13:08 55.5 °F /  13.1 °C 41.4 °F /  5.2 °C 30.11 in /  1019.5 hPa North 1.2 mph /  1.9 km/h 1.2 mph /  1.9 km/h 59 % 0.00 in /  0 mm
13:13 56.1 °F /  13.4 °C 41.5 °F /  5.3 °C 30.11 in /  1019.5 hPa NW 1.2 mph /  1.9 km/h 1.2 mph /  1.9 km/h 58 % 0.00 in /  0 mm
13:18 55.9 °F /  13.3 °C 41.3 °F /  5.2 °C 30.10 in /  1019.2 hPa NW 4.6 mph /  7.4 km/h 4.6 mph /  7.4 km/h 58 % 0.00 in /  0 mm
13:23 55.8 °F /  13.2 °C 41.2 °F /  5.1 °C 30.10 in /  1019.2 hPa WNW 2.3 mph /  3.7 km/h 2.3 mph /  3.7 km/h 58 % 0.00 in /  0 mm
13:28 55.9 °F /  13.3 °C 40.9 °F /  4.9 °C 30.10 in /  1019.2 hPa South 1.2 mph /  1.9 km/h   57 % 0.00 in /  0 mm
13:33 56.2 °F /  13.4 °C 41.6 °F /  5.3 °C 30.09 in /  1018.8 hPa Calm   0.1 mph /  0.2 km/h 58 % 0.00 in /  0 mm
13:39 56.5 °F /  13.6 °C 41.4 °F /  5.2 °C 30.09 in /  1018.8 hPa NW 3.5 mph /  5.6 km/h 3.5 mph /  5.6 km/h 57 % 0.00 in /  0 mm
13:44 56.2 °F /  13.4 °C 41.2 °F /  5.1 °C 30.09 in /  1018.8 hPa NW 1.2 mph /  1.9 km/h 1.2 mph /  1.9 km/h 57 % 0.00 in /  0 mm
13:49 56.4 °F /  13.6 °C 41.3 °F /  5.2 °C 30.09 in /  1018.8 hPa North 1.2 mph /  1.9 km/h 1.2 mph /  1.9 km/h 57 % 0.00 in /  0 mm
13:54 56.6 °F /  13.7 °C 41.1 °F /  5.1 °C 30.09 in /  1018.8 hPa Calm     56 % 0.00 in /  0 mm
13:59 56.7 °F /  13.7 °C 41.2 °F /  5.1 °C 30.09 in /  1018.8 hPa NW 3.5 mph /  5.6 km/h 3.5 mph /  5.6 km/h 56 % 0.00 in /  0 mm
14:04 56.5 °F /  13.6 °C 41.0 °F /  5 °C 30.09 in /  1018.8 hPa WSW 2.3 mph /  3.7 km/h 2.3 mph /  3.7 km/h 56 % 0.00 in /  0 mm
14:09 56.4 °F /  13.6 °C 40.9 °F /  4.9 °C 30.09 in /  1018.8 hPa NE 2.3 mph /  3.7 km/h 2.3 mph /  3.7 km/h 56 % 0.00 in /  0 mm
14:14 56.6 °F /  13.7 °C 41.1 °F /  5.1 °C 30.08 in /  1018.5 hPa NW 2.3 mph /  3.7 km/h 2.3 mph /  3.7 km/h 56 % 0.00 in /  0 mm
14:19 56.4 °F /  13.6 °C 40.9 °F /  4.9 °C 30.08 in /  1018.5 hPa NNW 3.5 mph /  5.6 km/h 3.5 mph /  5.6 km/h 56 % 0.00 in /  0 mm
14:24 56.5 °F /  13.6 °C 41.4 °F /  5.2 °C 30.08 in /  1018.5 hPa NW 2.3 mph /  3.7 km/h 2.3 mph /  3.7 km/h 57 % 0.00 in /  0 mm
14:34 56.7 °F /  13.7 °C 41.6 °F /  5.3 °C 30.09 in /  1018.8 hPa WNW 2.3 mph /  3.7 km/h 2.3 mph /  3.7 km/h 57 % 0.00 in /  0 mm
14:39 56.6 °F /  13.7 °C 41.1 °F /  5.1 °C 30.09 in /  1018.8 hPa NW 1.2 mph /  1.9 km/h   56 % 0.00 in /  0 mm
14:44 56.5 °F /  13.6 °C 41.0 °F /  5 °C 30.09 in /  1018.8 hPa Calm     56 % 0.00 in /  0 mm
14:49 56.4 °F /  13.6 °C 41.3 °F /  5.2 °C 30.09 in /  1018.8 hPa NW 3.5 mph /  5.6 km/h 3.5 mph /  5.6 km/h 57 % 0.00 in /  0 mm
14:54 56.3 °F /  13.5 °C 41.3 °F /  5.2 °C 30.09 in /  1018.8 hPa NW 2.3 mph /  3.7 km/h 2.3 mph /  3.7 km/h 57 % 0.00 in /  0 mm
14:59 56.2 °F /  13.4 °C 41.2 °F /  5.1 °C 30.09 in /  1018.8 hPa NW 2.3 mph /  3.7 km/h 2.3 mph /  3.7 km/h 57 % 0.00 in /  0 mm
15:04 56.1 °F /  13.4 °C 41.1 °F /  5.1 °C 30.09 in /  1018.8 hPa NW 3.0 mph /  4.8 km/h 3.0 mph /  4.8 km/h 57 % 0.00 in /  0 mm
15:09 56.1 °F /  13.4 °C 41.5 °F /  5.3 °C 30.10 in /  1019.2 hPa NNW 2.3 mph /  3.7 km/h 2.3 mph /  3.7 km/h 58 % 0.00 in /  0 mm
15:14 56.1 °F /  13.4 °C 41.5 °F /  5.3 °C 30.10 in /  1019.2 hPa WSW 1.2 mph /  1.9 km/h 1.2 mph /  1.9 km/h 58 % 0.00 in /  0 mm
15:19 56.1 °F /  13.4 °C 41.5 °F /  5.3 °C 30.10 in /  1019.2 hPa NW 2.3 mph /  3.7 km/h 2.3 mph /  3.7 km/h 58 % 0.00 in /  0 mm
15:24 56.0 °F /  13.3 °C 41.0 °F /  5 °C 30.10 in /  1019.2 hPa North 3.5 mph /  5.6 km/h 3.5 mph /  5.6 km/h 57 % 0.00 in /  0 mm
15:29 55.9 °F /  13.3 °C 41.3 °F /  5.2 °C 30.10 in /  1019.2 hPa Calm     58 % 0.00 in /  0 mm
15:34 55.9 °F /  13.3 °C 40.9 °F /  4.9 °C 30.10 in /  1019.2 hPa NNW 2.0 mph /  3.2 km/h 2.0 mph /  3.2 km/h 57 % 0.00 in /  0 mm
15:39 56.0 °F /  13.3 °C 41.0 °F /  5 °C 30.10 in /  1019.2 hPa NW 3.5 mph /  5.6 km/h 3.5 mph /  5.6 km/h 57 % 0.00 in /  0 mm
15:49 55.8 °F /  13.2 °C 41.2 °F /  5.1 °C 30.10 in /  1019.2 hPa WNW 2.3 mph /  3.7 km/h 2.3 mph /  3.7 km/h 58 % 0.00 in /  0 mm
15:54 55.7 °F /  13.2 °C 41.1 °F /  5.1 °C 30.10 in /  1019.2 hPa NW 2.3 mph /  3.7 km/h 2.3 mph /  3.7 km/h 58 % 0.00 in /  0 mm
15:59 55.5 °F /  13.1 °C 41.0 °F /  5 °C 30.10 in /  1019.2 hPa NW 2.0 mph /  3.2 km/h 2.0 mph /  3.2 km/h 58 % 0.00 in /  0 mm
16:04 55.4 °F /  13 °C 40.4 °F /  4.7 °C 30.10 in /  1019.2 hPa NW 2.0 mph /  3.2 km/h 2.0 mph /  3.2 km/h 57 % 0.00 in /  0 mm
16:09 55.2 °F /  12.9 °C 40.7 °F /  4.8 °C 30.10 in /  1019.2 hPa North 2.3 mph /  3.7 km/h 2.3 mph /  3.7 km/h 58 % 0.00 in /  0 mm
16:14 55.0 °F /  12.8 °C 40.9 °F /  4.9 °C 30.10 in /  1019.2 hPa NW 1.2 mph /  1.9 km/h 1.2 mph /  1.9 km/h 59 % 0.00 in /  0 mm
16:19 54.6 °F /  12.6 °C 40.6 °F /  4.8 °C 30.10 in /  1019.2 hPa Calm     59 % 0.00 in /  0 mm
16:24 54.3 °F /  12.4 °C 40.7 °F /  4.8 °C 30.11 in /  1019.5 hPa WNW 1.2 mph /  1.9 km/h 1.2 mph /  1.9 km/h 60 % 0.00 in /  0 mm
16:29 53.9 °F /  12.2 °C 40.8 °F /  4.9 °C 30.11 in /  1019.5 hPa WNW 1.0 mph /  1.6 km/h 1.0 mph /  1.6 km/h 61 % 0.00 in /  0 mm
16:34 53.6 °F /  12 °C 40.5 °F /  4.7 °C 30.11 in /  1019.5 hPa NW 1.2 mph /  1.9 km/h   61 % 0.00 in /  0 mm
16:39 53.5 °F /  11.9 °C 40.4 °F /  4.7 °C 30.11 in /  1019.5 hPa Calm     61 % 0.00 in /  0 mm
16:44 53.2 °F /  11.8 °C 40.5 °F /  4.7 °C 30.11 in /  1019.5 hPa Calm     62 % 0.00 in /  0 mm
16:49 52.7 °F /  11.5 °C 40.5 °F /  4.7 °C 30.11 in /  1019.5 hPa Calm     63 % 0.00 in /  0 mm
16:54 52.4 °F /  11.3 °C 40.2 °F /  4.6 °C 30.11 in /  1019.5 hPa Calm     63 % 0.00 in /  0 mm
16:59 52.0 °F /  11.1 °C 40.2 °F /  4.6 °C 30.11 in /  1019.5 hPa Calm     64 % 0.00 in /  0 mm
17:04 51.4 °F /  10.8 °C 40.4 °F /  4.7 °C 30.11 in /  1019.5 hPa Calm     66 % 0.00 in /  0 mm
17:09 50.7 °F /  10.4 °C 40.1 °F /  4.5 °C 30.11 in /  1019.5 hPa Calm     67 % 0.00 in /  0 mm
17:14 50.1 °F /  10.1 °C 39.9 °F /  4.4 °C 30.11 in /  1019.5 hPa Calm     68 % 0.00 in /  0 mm
17:19 49.7 °F /  9.8 °C 39.9 °F /  4.4 °C 30.11 in /  1019.5 hPa Calm     69 % 0.00 in /  0 mm
17:24 49.6 °F /  9.8 °C 40.2 °F /  4.6 °C 30.11 in /  1019.5 hPa Calm     70 % 0.00 in /  0 mm
17:29 49.3 °F /  9.6 °C 40.3 °F /  4.6 °C 30.12 in /  1019.9 hPa Calm     71 % 0.00 in /  0 mm
17:34 48.9 °F /  9.4 °C 40.3 °F /  4.6 °C 30.12 in /  1019.9 hPa Calm     72 % 0.00 in /  0 mm
17:39 48.3 °F /  9.1 °C 40.0 °F /  4.4 °C 30.12 in /  1019.9 hPa Calm     73 % 0.00 in /  0 mm
17:44 47.9 °F /  8.8 °C 40.0 °F /  4.4 °C 30.12 in /  1019.9 hPa Calm     74 % 0.00 in /  0 mm
17:49 47.4 °F /  8.6 °C 39.5 °F /  4.2 °C 30.12 in /  1019.9 hPa Calm     74 % 0.00 in /  0 mm
17:54 47.0 °F /  8.3 °C 40.2 °F /  4.6 °C 30.12 in /  1019.9 hPa Calm     77 % 0.00 in /  0 mm
17:59 46.7 °F /  8.2 °C 40.2 °F /  4.6 °C 30.12 in /  1019.9 hPa Calm     78 % 0.00 in /  0 mm
18:04 46.4 °F /  8 °C 40.2 °F /  4.6 °C 30.12 in /  1019.9 hPa Calm     79 % 0.00 in /  0 mm
18:09 46.1 °F /  7.8 °C 39.9 °F /  4.4 °C 30.12 in /  1019.9 hPa Calm     79 % 0.00 in /  0 mm
18:14 45.8 °F /  7.7 °C 39.7 °F /  4.3 °C 30.12 in /  1019.9 hPa Calm     79 % 0.00 in /  0 mm
18:19 45.5 °F /  7.5 °C 40.0 °F /  4.4 °C 30.13 in /  1020.2 hPa Calm     81 % 0.00 in /  0 mm
18:23 45.2 °F /  7.3 °C 39.7 °F /  4.3 °C 30.13 in /  1020.2 hPa Calm     81 % 0.00 in /  0 mm
18:28 44.9 °F /  7.2 °C 39.7 °F /  4.3 °C 30.13 in /  1020.2 hPa Calm     82 % 0.00 in /  0 mm
18:33 44.8 °F /  7.1 °C 39.3 °F /  4.1 °C 30.13 in /  1020.2 hPa Calm     81 % 0.00 in /  0 mm
18:38 44.5 °F /  6.9 °C 39.7 °F /  4.3 °C 30.13 in /  1020.2 hPa Calm     83 % 0.00 in /  0 mm
18:43 44.3 °F /  6.8 °C 39.8 °F /  4.3 °C 30.14 in /  1020.5 hPa Calm     84 % 0.00 in /  0 mm
18:48 44.1 °F /  6.7 °C 39.6 °F /  4.2 °C 30.14 in /  1020.5 hPa Calm     84 % 0.00 in /  0 mm
18:53 43.8 °F /  6.6 °C 39.3 °F /  4.1 °C 30.14 in /  1020.5 hPa Calm     84 % 0.00 in /  0 mm
18:59 43.8 °F /  6.6 °C 39.6 °F /  4.2 °C 30.14 in /  1020.5 hPa Calm     85 % 0.00 in /  0 mm
19:04 43.9 °F /  6.6 °C 39.4 °F /  4.1 °C 30.15 in /  1020.9 hPa Calm     84 % 0.00 in /  0 mm
19:09 43.9 °F /  6.6 °C 39.7 °F /  4.3 °C 30.15 in /  1020.9 hPa Calm     85 % 0.00 in /  0 mm
19:14 43.8 °F /  6.6 °C 39.6 °F /  4.2 °C 30.15 in /  1020.9 hPa Calm     85 % 0.00 in /  0 mm
19:19 43.9 °F /  6.6 °C 39.4 °F /  4.1 °C 30.15 in /  1020.9 hPa Calm     84 % 0.00 in /  0 mm
19:22 44.3 °F /  6.8 °C 39.8 °F /  4.3 °C 30.15 in /  1020.9 hPa Calm     84 % 0.00 in /  0 mm
19:27 44.3 °F /  6.8 °C 39.5 °F /  4.2 °C 30.15 in /  1020.9 hPa Calm     83 % 0.00 in /  0 mm
19:32 44.0 °F /  6.7 °C 39.2 °F /  4 °C 30.15 in /  1020.9 hPa Calm     83 % 0.00 in /  0 mm
19:37 43.9 °F /  6.6 °C 39.4 °F /  4.1 °C 30.15 in /  1020.9 hPa Calm     84 % 0.00 in /  0 mm
19:43 43.8 °F /  6.6 °C 39.3 °F /  4.1 °C 30.15 in /  1020.9 hPa Calm     84 % 0.00 in /  0 mm
19:48 43.5 °F /  6.4 °C 39.3 °F /  4.1 °C 30.15 in /  1020.9 hPa Calm     85 % 0.00 in /  0 mm
19:53 43.2 °F /  6.2 °C 39.0 °F /  3.9 °C 30.15 in /  1020.9 hPa Calm     85 % 0.00 in /  0 mm
19:58 42.7 °F /  5.9 °C 38.5 °F /  3.6 °C 30.15 in /  1020.9 hPa Calm     85 % 0.00 in /  0 mm
20:03 42.7 °F /  5.9 °C 38.8 °F /  3.8 °C 30.15 in /  1020.9 hPa Calm     86 % 0.00 in /  0 mm
20:08 42.5 °F /  5.8 °C 38.6 °F /  3.7 °C 30.16 in /  1021.2 hPa Calm     86 % 0.00 in /  0 mm
20:13 42.3 °F /  5.7 °C 38.7 °F /  3.7 °C 30.16 in /  1021.2 hPa Calm     87 % 0.00 in /  0 mm
20:18 42.2 °F /  5.7 °C 38.6 °F /  3.7 °C 30.16 in /  1021.2 hPa Calm     87 % 0.00 in /  0 mm
20:26 42.3 °F /  5.7 °C 38.4 °F /  3.6 °C 30.16 in /  1021.2 hPa Calm     86 % 0.00 in /  0 mm
20:31 42.2 °F /  5.7 °C 38.6 °F /  3.7 °C 30.17 in /  1021.6 hPa Calm     87 % 0.00 in /  0 mm
20:36 42.0 °F /  5.6 °C 38.4 °F /  3.6 °C 30.17 in /  1021.6 hPa Calm     87 % 0.00 in /  0 mm
20:41 41.9 °F /  5.5 °C 38.3 °F /  3.5 °C 30.17 in /  1021.6 hPa Calm     87 % 0.00 in /  0 mm
20:46 41.6 °F /  5.3 °C 38.0 °F /  3.3 °C 30.16 in /  1021.2 hPa Calm     87 % 0.00 in /  0 mm
20:51 41.5 °F /  5.3 °C 37.9 °F /  3.3 °C 30.17 in /  1021.6 hPa SE 1.2 mph /  1.9 km/h   87 % 0.00 in /  0 mm
20:56 41.0 °F /  5 °C 37.1 °F /  2.8 °C 30.17 in /  1021.6 hPa Calm     86 % 0.00 in /  0 mm
21:01 40.8 °F /  4.9 °C 37.2 °F /  2.9 °C 30.17 in /  1021.6 hPa Calm     87 % 0.00 in /  0 mm
21:06 40.6 °F /  4.8 °C 37.0 °F /  2.8 °C 30.18 in /  1021.9 hPa East 1.2 mph /  1.9 km/h 1.2 mph /  1.9 km/h 87 % 0.00 in /  0 mm
21:12 40.5 °F /  4.7 °C 36.9 °F /  2.7 °C 30.18 in /  1021.9 hPa East 1.2 mph /  1.9 km/h   87 % 0.00 in /  0 mm
21:17 40.4 °F /  4.7 °C 37.1 °F /  2.8 °C 30.18 in /  1021.9 hPa Calm     88 % 0.00 in /  0 mm
21:22 40.1 °F /  4.5 °C 36.8 °F /  2.7 °C 30.18 in /  1021.9 hPa Calm     88 % 0.00 in /  0 mm
21:27 39.9 °F /  4.4 °C 36.6 °F /  2.6 °C 30.18 in /  1021.9 hPa Calm     88 % 0.00 in /  0 mm
21:32 39.6 °F /  4.2 °C 36.3 °F /  2.4 °C 30.18 in /  1021.9 hPa Calm     88 % 0.00 in /  0 mm
21:37 39.6 °F /  4.2 °C 36.6 °F /  2.6 °C 30.18 in /  1021.9 hPa Calm     89 % 0.00 in /  0 mm
21:42 39.5 °F /  4.2 °C 36.5 °F /  2.5 °C 30.19 in /  1022.2 hPa Calm     89 % 0.00 in /  0 mm
21:47 39.5 °F /  4.2 °C 36.5 °F /  2.5 °C 30.18 in /  1021.9 hPa Calm     89 % 0.00 in /  0 mm
21:52 39.4 °F /  4.1 °C 36.4 °F /  2.4 °C 30.18 in /  1021.9 hPa Calm     89 % 0.00 in /  0 mm
21:57 39.3 °F /  4.1 °C 36.3 °F /  2.4 °C 30.18 in /  1021.9 hPa Calm     89 % 0.00 in /  0 mm
22:02 39.2 °F /  4 °C 36.2 °F /  2.3 °C 30.18 in /  1021.9 hPa Calm     89 % 0.00 in /  0 mm
22:07 39.3 °F /  4.1 °C 36.6 °F /  2.6 °C 30.18 in /  1021.9 hPa Calm     90 % 0.00 in /  0 mm
22:12 39.6 °F /  4.2 °C 36.9 °F /  2.7 °C 30.19 in /  1022.2 hPa Calm     90 % 0.00 in /  0 mm
22:17 39.8 °F /  4.3 °C 36.8 °F /  2.7 °C 30.18 in /  1021.9 hPa Calm     89 % 0.00 in /  0 mm
22:22 40.0 °F /  4.4 °C 37.0 °F /  2.8 °C 30.18 in /  1021.9 hPa Calm     89 % 0.00 in /  0 mm
22:27 39.9 °F /  4.4 °C 36.6 °F /  2.6 °C 30.18 in /  1021.9 hPa Calm     88 % 0.00 in /  0 mm
22:32 39.8 °F /  4.3 °C 36.5 °F /  2.5 °C 30.18 in /  1021.9 hPa Calm     88 % 0.00 in /  0 mm
22:37 39.8 °F /  4.3 °C 36.5 °F /  2.5 °C 30.18 in /  1021.9 hPa Calm     88 % 0.00 in /  0 mm
22:42 39.5 °F /  4.2 °C 36.2 °F /  2.3 °C 30.18 in /  1021.9 hPa Calm     88 % 0.00 in /  0 mm
22:48 39.0 °F /  3.9 °C 36.0 °F /  2.2 °C 30.19 in /  1022.2 hPa Calm     89 % 0.00 in /  0 mm
22:53 38.7 °F /  3.7 °C 35.7 °F /  2.1 °C 30.19 in /  1022.2 hPa Calm     89 % 0.00 in /  0 mm
22:58 38.3 °F /  3.5 °C 35.6 °F /  2 °C 30.19 in /  1022.2 hPa Calm     90 % 0.00 in /  0 mm
23:03 38.2 °F /  3.4 °C 35.5 °F /  1.9 °C 30.19 in /  1022.2 hPa Calm     90 % 0.00 in /  0 mm
23:08 38.0 °F /  3.3 °C 35.3 °F /  1.8 °C 30.20 in /  1022.6 hPa Calm     90 % 0.00 in /  0 mm
23:13 37.9 °F /  3.3 °C 35.5 °F /  1.9 °C 30.20 in /  1022.6 hPa Calm     91 % 0.00 in /  0 mm
23:18 37.9 °F /  3.3 °C 35.5 °F /  1.9 °C 30.20 in /  1022.6 hPa Calm     91 % 0.00 in /  0 mm
23:23 37.8 °F /  3.2 °C 35.4 °F /  1.9 °C 30.21 in /  1022.9 hPa Calm     91 % 0.00 in /  0 mm
23:28 37.6 °F /  3.1 °C 35.2 °F /  1.8 °C 30.20 in /  1022.6 hPa Calm     91 % 0.00 in /  0 mm
23:33 37.5 °F /  3.1 °C 35.1 °F /  1.7 °C 30.21 in /  1022.9 hPa Calm     91 % 0.00 in /  0 mm
23:38 37.3 °F /  2.9 °C 34.9 °F /  1.6 °C 30.21 in /  1022.9 hPa Calm     91 % 0.00 in /  0 mm
23:43 37.2 °F /  2.9 °C 34.8 °F /  1.6 °C 30.21 in /  1022.9 hPa Calm     91 % 0.00 in /  0 mm
23:48 37.1 °F /  2.8 °C 34.7 °F /  1.5 °C 30.22 in /  1023.2 hPa Calm     91 % 0.00 in /  0 mm
23:53 37.0 °F /  2.8 °C 34.6 °F /  1.4 °C 30.22 in /  1023.2 hPa Calm     91 % 0.00 in /  0 mm
23:54 36.9 °F /  2.7 °C 34.5 °F /  1.4 °C 30.22 in /  1023.2 hPa Calm     91 % 0.00 in /  0 mm
Park Place, Exeter, Tulare County, California, USA
Compliments of Weather Underground - 2.75 mb